createdAt,value
2023-04-18T00:00:48.852Z,12.01
2023-04-18T00:03:16.325Z,11.96
2023-04-18T00:05:48.102Z,11.94
2023-04-18T00:08:15.054Z,11.90
2023-04-18T00:10:42.040Z,11.90
2023-04-18T00:13:08.867Z,11.92
2023-04-18T00:15:35.832Z,11.95
2023-04-18T00:18:03.894Z,11.96
2023-04-18T00:20:30.909Z,11.98
2023-04-18T00:22:58.168Z,12.00
2023-04-18T00:25:25.115Z,12.03
2023-04-18T00:27:51.939Z,12.06
2023-04-18T00:30:18.823Z,12.07
2023-04-18T00:32:45.769Z,12.07
2023-04-18T00:35:12.748Z,12.11
2023-04-18T00:37:39.635Z,12.13
2023-04-18T00:40:06.825Z,12.11
2023-04-18T00:42:34.105Z,12.07
2023-04-18T00:45:01.426Z,12.10
2023-04-18T00:47:30.540Z,12.07
2023-04-18T00:49:57.513Z,12.06
2023-04-18T00:52:26.137Z,12.04
2023-04-18T00:54:53.108Z,11.99
2023-04-18T00:57:19.946Z,11.95
2023-04-18T00:59:47.451Z,11.98
2023-04-18T01:02:14.427Z,11.96
2023-04-18T01:04:43.005Z,11.94
2023-04-18T01:07:09.941Z,11.93
2023-04-18T01:09:37.097Z,11.97
2023-04-18T01:12:04.442Z,11.99
2023-04-18T01:14:31.516Z,11.99
2023-04-18T01:16:58.862Z,12.02
2023-04-18T01:19:25.864Z,12.05
2023-04-18T01:21:54.192Z,12.01
2023-04-18T01:24:21.793Z,12.01
2023-04-18T01:26:48.855Z,11.99
2023-04-18T01:29:16.004Z,12.00
2023-04-18T01:31:42.979Z,11.98
2023-04-18T01:34:09.919Z,11.98
2023-04-18T01:36:37.774Z,12.00
2023-04-18T01:39:04.714Z,12.04
2023-04-18T01:41:33.078Z,12.09
2023-04-18T01:44:00.383Z,12.12
2023-04-18T01:46:27.948Z,12.18
2023-04-18T01:48:55.252Z,12.19
2023-04-18T01:51:22.566Z,12.17
2023-04-18T01:53:49.965Z,12.13
2023-04-18T01:56:16.965Z,12.10
2023-04-18T01:58:43.846Z,12.06
2023-04-18T02:01:12.433Z,12.04
2023-04-18T02:03:40.169Z,12.01
2023-04-18T02:06:07.378Z,11.99
2023-04-18T02:08:36.169Z,12.05
2023-04-18T02:11:06.133Z,12.07
2023-04-18T02:13:33.183Z,12.06
2023-04-18T02:16:00.403Z,12.11
2023-04-18T02:18:47.288Z,12.16
2023-04-18T02:21:14.164Z,12.17
2023-04-18T02:23:41.027Z,12.13
2023-04-18T02:26:07.969Z,12.05
2023-04-18T02:28:34.880Z,11.97
2023-04-18T02:31:03.453Z,11.94
2023-04-18T02:33:30.442Z,11.93
2023-04-18T02:35:57.396Z,11.94
2023-04-18T02:38:24.379Z,11.95
2023-04-18T02:40:52.265Z,11.97
2023-04-18T02:43:21.031Z,11.98
2023-04-18T02:45:48.078Z,11.97
2023-04-18T02:48:15.180Z,11.94
2023-04-18T02:50:43.475Z,11.96
2023-04-18T02:53:10.471Z,11.90
2023-04-18T02:55:55.997Z,11.87
2023-04-18T02:58:29.982Z,11.81
2023-04-18T03:01:29.270Z,11.76
2023-04-18T03:04:07.230Z,11.71
2023-04-18T03:06:44.122Z,11.66
2023-04-18T03:09:11.501Z,11.63
2023-04-18T03:11:44.267Z,11.62
2023-04-18T03:14:12.183Z,11.65
2023-04-18T03:16:57.095Z,11.71
2023-04-18T03:19:29.903Z,11.76
2023-04-18T03:22:00.084Z,11.81
2023-04-18T03:24:27.528Z,11.88
2023-04-18T03:27:00.664Z,11.98
2023-04-18T03:29:27.952Z,12.07
2023-04-18T03:31:55.918Z,12.15
2023-04-18T03:34:23.095Z,12.20
2023-04-18T03:36:50.187Z,12.21
2023-04-18T03:39:17.378Z,12.20
2023-04-18T03:41:44.609Z,12.15
2023-04-18T03:44:12.048Z,12.06
2023-04-18T03:46:41.052Z,11.99
2023-04-18T03:49:10.694Z,12.01
2023-04-18T03:51:47.983Z,12.03
2023-04-18T03:54:16.343Z,12.06
2023-04-18T03:56:43.762Z,12.14
2023-04-18T03:59:11.326Z,12.23
2023-04-18T04:01:40.128Z,12.24
2023-04-18T04:04:27.361Z,12.14
2023-04-18T04:06:54.470Z,12.03
2023-04-18T04:09:21.812Z,11.98
2023-04-18T04:11:50.305Z,11.93
2023-04-18T04:14:17.557Z,11.93
2023-04-18T04:16:46.484Z,11.92
2023-04-18T04:19:16.549Z,11.95
2023-04-18T04:21:51.603Z,11.99
2023-04-18T04:24:18.799Z,12.02
2023-04-18T04:26:48.944Z,12.09
2023-04-18T04:29:23.921Z,12.24
2023-04-18T04:31:52.520Z,12.37
2023-04-18T04:34:41.516Z,12.50
2023-04-18T04:37:10.866Z,12.56
2023-04-18T04:39:47.358Z,12.58
2023-04-18T04:42:32.628Z,12.61
2023-04-18T04:45:08.325Z,12.65
2023-04-18T04:47:36.952Z,12.70
2023-04-18T04:50:04.719Z,12.74
2023-04-18T04:52:33.418Z,12.67
2023-04-18T04:55:00.902Z,12.64
2023-04-18T04:57:30.210Z,12.66
2023-04-18T04:59:57.613Z,12.73
2023-04-18T05:02:25.264Z,12.79
2023-04-18T05:04:52.199Z,12.86
2023-04-18T05:07:19.198Z,12.89
2023-04-18T05:09:46.986Z,12.87
2023-04-18T05:12:14.702Z,12.81
2023-04-18T05:14:41.738Z,12.74
2023-04-18T05:17:08.847Z,12.75
2023-04-18T05:19:35.854Z,12.72
2023-04-18T05:22:03.312Z,12.71
2023-04-18T05:24:32.024Z,12.79
2023-04-18T05:26:59.032Z,12.90
2023-04-18T05:29:26.148Z,12.98
2023-04-18T05:31:53.320Z,13.05
2023-04-18T05:34:20.116Z,13.10
2023-04-18T05:36:48.228Z,13.18
2023-04-18T05:39:15.194Z,13.20
2023-04-18T05:41:42.591Z,13.29
2023-04-18T05:44:09.463Z,13.30
2023-04-18T05:46:36.370Z,13.36
2023-04-18T05:49:04.201Z,13.36
2023-04-18T05:51:31.686Z,13.40
2023-04-18T05:53:58.645Z,13.41
2023-04-18T05:56:44.140Z,13.47
2023-04-18T05:59:11.053Z,13.48
2023-04-18T06:01:38.008Z,13.37
2023-04-18T06:04:05.280Z,13.39
2023-04-18T06:06:32.395Z,13.36
2023-04-18T06:08:59.252Z,13.35
2023-04-18T06:11:26.471Z,13.32
2023-04-18T06:13:55.964Z,13.33
2023-04-18T06:16:23.097Z,13.41
2023-04-18T06:18:50.017Z,13.43
2023-04-18T06:21:16.921Z,13.40
2023-04-18T06:23:43.923Z,13.44
2023-04-18T06:26:11.396Z,13.47
2023-04-18T06:28:38.316Z,13.63
2023-04-18T06:31:05.186Z,13.73
2023-04-18T06:33:33.617Z,13.82
2023-04-18T06:36:00.564Z,13.94
2023-04-18T06:38:27.439Z,14.10
2023-04-18T06:40:54.362Z,14.07
2023-04-18T06:43:22.158Z,14.05
2023-04-18T06:45:49.509Z,13.98
2023-04-18T06:48:16.491Z,13.99
2023-04-18T06:50:44.012Z,14.04
2023-04-18T06:53:11.117Z,14.09
2023-04-18T06:55:37.993Z,14.02
2023-04-18T06:58:05.608Z,13.99
2023-04-18T07:00:32.533Z,13.91
2023-04-18T07:02:59.517Z,13.97
2023-04-18T07:05:26.505Z,14.02
2023-04-18T07:07:53.337Z,14.19
2023-04-18T07:10:20.289Z,14.22
2023-04-18T07:12:47.789Z,14.17
2023-04-18T07:15:14.777Z,14.19
2023-04-18T07:17:41.705Z,14.21
2023-04-18T07:20:08.940Z,14.18
2023-04-18T07:22:35.967Z,14.22
2023-04-18T07:25:02.954Z,14.25
2023-04-18T07:27:30.935Z,14.21
2023-04-18T07:29:57.923Z,14.24
2023-04-18T07:32:24.764Z,14.22
2023-04-18T07:34:52.946Z,14.27
2023-04-18T07:37:21.552Z,14.26
2023-04-18T07:39:48.544Z,14.29
2023-04-18T07:42:15.383Z,14.46
2023-04-18T07:44:42.318Z,14.56
2023-04-18T07:47:10.524Z,14.60
2023-04-18T07:49:37.987Z,14.62
2023-04-18T07:52:04.880Z,14.70
2023-04-18T07:54:32.459Z,14.68
2023-04-18T07:56:59.421Z,14.84
2023-04-18T07:59:26.306Z,15.02
2023-04-18T08:01:53.354Z,15.09
2023-04-18T08:04:20.470Z,15.13
2023-04-18T08:06:47.425Z,15.21
2023-04-18T08:09:14.554Z,15.27
2023-04-18T08:11:42.583Z,15.32
2023-04-18T08:14:09.550Z,15.27
2023-04-18T08:16:36.716Z,15.27
2023-04-18T08:19:03.665Z,15.06
2023-04-18T08:21:31.361Z,14.82
2023-04-18T08:23:59.561Z,14.86
2023-04-18T08:26:27.349Z,14.64
2023-04-18T08:28:54.357Z,14.74
2023-04-18T08:31:21.409Z,14.86
2023-04-18T08:33:48.238Z,14.96
2023-04-18T08:36:15.133Z,14.85
2023-04-18T08:38:42.155Z,14.80
2023-04-18T08:41:09.779Z,14.76
2023-04-18T08:43:57.066Z,14.87
2023-04-18T08:46:24.212Z,14.74
2023-04-18T08:48:51.585Z,14.75
2023-04-18T08:51:30.726Z,14.90
2023-04-18T08:54:07.436Z,15.07
2023-04-18T08:56:37.502Z,15.27
2023-04-18T08:59:05.865Z,15.32
2023-04-18T09:02:05.556Z,15.22
2023-04-18T09:04:38.918Z,15.34
2023-04-18T09:07:06.840Z,15.47
2023-04-18T09:09:46.379Z,15.68
2023-04-18T09:12:16.369Z,15.89
2023-04-18T09:14:45.696Z,16.05
2023-04-18T09:17:14.455Z,16.18
2023-04-18T09:19:54.649Z,16.22
2023-04-18T09:22:22.043Z,15.98
2023-04-18T09:24:55.553Z,15.41
2023-04-18T09:27:25.365Z,15.06
2023-04-18T09:29:55.895Z,15.08
2023-04-18T09:32:27.272Z,14.97
2023-04-18T09:34:58.286Z,14.66
2023-04-18T09:37:26.236Z,14.66
2023-04-18T09:39:53.382Z,14.73
2023-04-18T09:42:20.672Z,14.74
2023-04-18T09:45:07.029Z,14.72
2023-04-18T09:47:35.607Z,14.71
2023-04-18T09:50:03.633Z,14.51
2023-04-18T09:52:32.930Z,14.56
2023-04-18T09:55:00.837Z,14.63
2023-04-18T09:57:28.853Z,14.83
2023-04-18T09:59:59.868Z,14.84
2023-04-18T10:02:29.127Z,14.66
2023-04-18T10:04:56.334Z,14.49
2023-04-18T10:07:24.011Z,14.46
2023-04-18T10:09:51.549Z,14.46
2023-04-18T10:12:18.824Z,14.49
2023-04-18T10:14:45.993Z,14.45
2023-04-18T10:17:14.765Z,14.65
2023-04-18T10:19:44.378Z,14.59
2023-04-18T10:22:11.697Z,14.51
2023-04-18T10:24:48.772Z,14.63
2023-04-18T10:27:16.923Z,14.57
2023-04-18T10:29:46.530Z,14.63
2023-04-18T10:32:13.545Z,14.56
2023-04-18T10:34:41.270Z,14.50
2023-04-18T10:37:08.111Z,14.54
2023-04-18T10:39:57.225Z,14.47
2023-04-18T10:42:44.882Z,14.60
2023-04-18T10:45:22.225Z,14.50
2023-04-18T10:47:49.525Z,14.56
2023-04-18T10:50:17.101Z,14.64
2023-04-18T10:52:43.967Z,14.48
2023-04-18T10:55:17.387Z,14.26
2023-04-18T10:57:46.142Z,14.51
2023-04-18T11:00:14.761Z,14.49
2023-04-18T11:02:49.537Z,14.57
2023-04-18T11:05:27.927Z,14.52
2023-04-18T11:07:55.477Z,14.59
2023-04-18T11:10:24.696Z,14.56
2023-04-18T11:12:52.078Z,14.39
2023-04-18T11:15:23.667Z,14.29
2023-04-18T11:17:58.351Z,14.40
2023-04-18T11:20:25.714Z,14.43
2023-04-18T11:23:00.433Z,14.57
2023-04-18T11:25:31.975Z,14.53
2023-04-18T11:27:59.994Z,14.52
2023-04-18T11:30:27.273Z,14.59
2023-04-18T11:33:13.386Z,14.34
2023-04-18T11:35:59.853Z,14.32
2023-04-18T11:38:31.000Z,14.35
2023-04-18T11:40:58.049Z,14.56
2023-04-18T11:43:25.709Z,14.34
2023-04-18T11:46:11.759Z,14.45
2023-04-18T11:48:39.769Z,14.44
2023-04-18T11:51:07.430Z,14.67
2023-04-18T11:53:35.638Z,14.78
2023-04-18T11:56:04.168Z,14.89
2023-04-18T11:58:32.297Z,14.67
2023-04-18T12:03:45.078Z,14.52
2023-04-18T12:06:14.900Z,14.68
2023-04-18T12:08:43.164Z,14.77
2023-04-18T12:11:10.107Z,14.85
2023-04-18T12:13:36.974Z,14.87
2023-04-18T12:16:04.066Z,14.79
2023-04-18T12:18:31.693Z,14.64
2023-04-18T12:21:02.170Z,14.37
2023-04-18T12:23:37.155Z,14.40
2023-04-18T12:29:08.447Z,14.79
2023-04-18T12:31:35.656Z,14.95
2023-04-18T12:34:02.559Z,14.63
2023-04-18T12:36:29.838Z,14.65
2023-04-18T12:38:56.659Z,14.68
2023-04-18T12:41:23.718Z,14.76
2023-04-18T12:43:50.709Z,14.96
2023-04-18T12:46:17.760Z,14.91
2023-04-18T12:48:44.739Z,14.65
2023-04-18T12:51:26.890Z,14.66
2023-04-18T12:54:14.720Z,14.53
2023-04-18T12:59:44.632Z,14.68
2023-04-18T13:02:11.591Z,14.72
2023-04-18T13:04:38.891Z,15.02
2023-04-18T13:07:06.311Z,15.13
2023-04-18T13:09:33.819Z,15.45
2023-04-18T13:12:00.791Z,15.81
2023-04-18T13:14:27.709Z,16.22
2023-04-18T13:16:54.611Z,16.30
2023-04-18T13:19:21.596Z,16.11
2023-04-18T13:21:49.644Z,16.14
2023-04-18T13:24:16.686Z,15.99
2023-04-18T13:26:43.649Z,15.57
2023-04-18T13:29:10.464Z,15.73
2023-04-18T13:34:40.255Z,16.40
2023-04-18T13:37:45.022Z,16.58
2023-04-18T13:40:12.120Z,16.57
2023-04-18T13:42:58.072Z,16.90
2023-04-18T13:45:25.037Z,17.01
2023-04-18T13:47:52.035Z,17.26
2023-04-18T13:50:19.167Z,16.73
2023-04-18T13:52:48.223Z,16.10
2023-04-18T13:55:33.746Z,16.57
2023-04-18T13:58:00.808Z,16.81
2023-04-18T14:00:46.229Z,17.12
2023-04-18T14:03:13.181Z,17.09
2023-04-18T14:06:00.238Z,16.93
2023-04-18T14:08:45.899Z,17.03
2023-04-18T14:11:12.818Z,16.72
2023-04-18T14:13:39.634Z,16.32
2023-04-18T14:16:06.897Z,15.95
2023-04-18T14:18:52.567Z,15.88
2023-04-18T14:21:19.417Z,15.72
2023-04-18T14:23:46.300Z,15.52
2023-04-18T14:26:13.296Z,15.35
2023-04-18T14:28:40.348Z,15.28
2023-04-18T14:31:07.680Z,15.27
2023-04-18T14:33:34.975Z,15.07
2023-04-18T14:36:02.872Z,14.90
2023-04-18T14:38:30.071Z,14.93
2023-04-18T14:40:57.706Z,14.99
2023-04-18T14:43:24.935Z,15.03
2023-04-18T14:45:51.788Z,14.98
2023-04-18T14:48:18.683Z,14.83
2023-04-18T14:50:45.618Z,14.63
2023-04-18T14:53:12.554Z,14.54
2023-04-18T14:55:39.545Z,14.52
2023-04-18T14:58:06.579Z,14.48
2023-04-18T15:00:52.156Z,14.49
2023-04-18T15:03:19.301Z,14.59
2023-04-18T15:05:49.266Z,14.47
2023-04-18T15:08:16.453Z,14.36
2023-04-18T15:10:43.450Z,14.39
2023-04-18T15:13:11.278Z,14.47
2023-04-18T15:15:39.865Z,14.42
2023-04-18T15:18:07.758Z,14.27
2023-04-18T15:20:36.216Z,14.17
2023-04-18T15:23:03.432Z,14.06
2023-04-18T15:25:31.216Z,13.98
2023-04-18T15:27:58.629Z,13.99
2023-04-18T15:30:25.710Z,14.03
2023-04-18T15:32:54.065Z,14.00
2023-04-18T15:35:21.142Z,14.09
2023-04-18T15:37:49.334Z,14.03
2023-04-18T15:40:16.642Z,14.13
2023-04-18T15:42:43.922Z,14.09
2023-04-18T15:45:11.361Z,14.15
2023-04-18T15:47:38.941Z,14.10
2023-04-18T15:50:06.739Z,14.07
2023-04-18T15:52:33.837Z,14.00
2023-04-18T15:55:01.111Z,13.99
2023-04-18T15:57:29.923Z,13.98
2023-04-18T15:59:57.353Z,13.96
2023-04-18T16:02:43.028Z,13.90
2023-04-18T16:05:11.758Z,13.98
2023-04-18T16:07:42.462Z,14.05
2023-04-18T16:10:11.010Z,14.04
2023-04-18T16:12:39.201Z,14.02
2023-04-18T16:15:07.591Z,14.03
2023-04-18T16:17:34.837Z,14.01
2023-04-18T16:20:02.128Z,13.98
2023-04-18T16:22:30.102Z,13.87
2023-04-18T16:25:15.931Z,13.88
2023-04-18T16:27:44.516Z,13.82
2023-04-18T16:30:11.987Z,13.86
2023-04-18T16:32:39.737Z,13.81
2023-04-18T16:35:09.015Z,13.80
2023-04-18T16:37:41.698Z,13.79
2023-04-18T16:40:10.252Z,13.78
2023-04-18T16:42:37.357Z,13.77
2023-04-18T16:45:04.686Z,13.70
2023-04-18T16:47:33.466Z,13.64
2023-04-18T16:50:00.604Z,13.56
2023-04-18T16:52:27.567Z,13.60
2023-04-18T16:54:54.843Z,13.67
2023-04-18T16:57:21.671Z,13.54
2023-04-18T16:59:48.585Z,13.49
2023-04-18T17:02:15.702Z,13.44
2023-04-18T17:04:42.821Z,13.44
2023-04-18T17:07:09.776Z,13.38
2023-04-18T17:09:36.979Z,13.40
2023-04-18T17:12:03.889Z,13.34
2023-04-18T17:14:30.844Z,13.25
2023-04-18T17:16:57.696Z,13.25
2023-04-18T17:19:24.549Z,13.23
2023-04-18T17:21:51.724Z,13.22
2023-04-18T17:24:18.966Z,13.21
2023-04-18T17:26:46.350Z,13.22
2023-04-18T17:29:13.483Z,13.12
2023-04-18T17:31:40.587Z,13.16
2023-04-18T17:34:08.066Z,13.24
2023-04-18T17:36:35.081Z,13.18
2023-04-18T17:39:07.887Z,13.14
2023-04-18T17:41:53.328Z,13.18
2023-04-18T17:44:20.221Z,13.17
2023-04-18T17:46:48.848Z,13.20
2023-04-18T17:49:17.039Z,13.15
2023-04-18T17:51:43.907Z,13.09
2023-04-18T17:54:29.570Z,13.11
2023-04-18T17:56:57.899Z,13.08
2023-04-18T17:59:43.610Z,13.05
2023-04-18T18:02:11.940Z,13.04
2023-04-18T18:04:39.238Z,12.99
2023-04-18T18:07:06.365Z,13.04
2023-04-18T18:09:33.286Z,13.05
2023-04-18T18:12:00.331Z,13.03
2023-04-18T18:14:27.339Z,13.02
2023-04-18T18:16:54.370Z,13.00
2023-04-18T18:19:21.561Z,12.98
2023-04-18T18:21:48.411Z,12.89
2023-04-18T18:24:15.533Z,12.93
2023-04-18T18:26:42.409Z,12.96
2023-04-18T18:29:09.516Z,13.01
2023-04-18T18:31:36.623Z,13.02
2023-04-18T18:34:03.603Z,13.05
2023-04-18T18:36:31.556Z,13.13
2023-04-18T18:38:58.513Z,13.15
2023-04-18T18:41:43.878Z,13.19
2023-04-18T18:44:11.898Z,13.15
2023-04-18T18:46:38.858Z,13.17
2023-04-18T18:49:05.769Z,13.19
2023-04-18T18:51:33.006Z,13.18
2023-04-18T18:53:59.900Z,13.18
2023-04-18T18:56:27.131Z,13.20
2023-04-18T18:58:55.791Z,13.20
2023-04-18T19:01:23.152Z,13.23
2023-04-18T19:03:50.350Z,13.22
2023-04-18T19:06:17.499Z,13.22
2023-04-18T19:08:44.501Z,13.16
2023-04-18T19:11:13.102Z,13.15
2023-04-18T19:13:40.003Z,13.13
2023-04-18T19:16:07.051Z,13.15
2023-04-18T19:18:34.191Z,13.09
2023-04-18T19:21:01.131Z,13.06
2023-04-18T19:23:28.122Z,13.07
2023-04-18T19:25:55.149Z,13.06
2023-04-18T19:28:23.014Z,13.05
2023-04-18T19:30:50.127Z,12.99
2023-04-18T19:33:35.808Z,12.94
2023-04-18T19:36:02.770Z,12.90
2023-04-18T19:38:29.622Z,12.89
2023-04-18T19:40:56.540Z,12.89
2023-04-18T19:43:23.472Z,12.93
2023-04-18T19:45:50.728Z,12.94
2023-04-18T19:48:36.372Z,12.95
2023-04-18T19:51:21.824Z,12.89
2023-04-18T19:53:48.804Z,12.86
2023-04-18T19:56:15.908Z,12.83
2023-04-18T19:58:46.479Z,12.78
2023-04-18T20:01:14.113Z,12.77
2023-04-18T20:03:41.690Z,12.75
2023-04-18T20:06:08.798Z,12.73
2023-04-18T20:08:36.857Z,12.71
2023-04-18T20:11:10.597Z,12.74
2023-04-18T20:14:04.119Z,12.70
2023-04-18T20:16:31.857Z,12.65
2023-04-18T20:18:58.989Z,12.66
2023-04-18T20:21:26.769Z,12.64
2023-04-18T20:24:12.481Z,12.61
2023-04-18T20:26:39.377Z,12.57
2023-04-18T20:29:25.046Z,12.58
2023-04-18T20:31:52.158Z,12.57
2023-04-18T20:34:37.850Z,12.56
2023-04-18T20:37:23.313Z,12.58
2023-04-18T20:39:50.278Z,12.58
2023-04-18T20:42:17.605Z,12.61
2023-04-18T20:44:47.014Z,12.59
2023-04-18T20:47:51.109Z,12.57
2023-04-18T20:50:18.478Z,12.57
2023-04-18T20:52:45.489Z,12.58
2023-04-18T20:55:12.471Z,12.56
2023-04-18T20:57:39.406Z,12.51
2023-04-18T21:00:07.385Z,12.46
2023-04-18T21:02:34.802Z,12.42
2023-04-18T21:05:01.898Z,12.42
2023-04-18T21:07:31.232Z,12.42
2023-04-18T21:09:58.268Z,12.42
2023-04-18T21:12:25.240Z,12.45
2023-04-18T21:14:52.264Z,12.47
2023-04-18T21:17:20.772Z,12.46
2023-04-18T21:19:48.150Z,12.45
2023-04-18T21:22:15.812Z,12.41
2023-04-18T21:24:42.829Z,12.34
2023-04-18T21:27:12.484Z,12.29
2023-04-18T21:29:41.218Z,12.28
2023-04-18T21:32:08.071Z,12.23
2023-04-18T21:34:53.653Z,12.27
2023-04-18T21:37:20.682Z,12.26
2023-04-18T21:40:24.981Z,12.27
2023-04-18T21:42:51.869Z,12.21
2023-04-18T21:45:37.858Z,12.13
2023-04-18T21:48:23.578Z,12.13
2023-04-18T21:50:56.392Z,12.08
2023-04-18T21:53:23.311Z,12.13
2023-04-18T21:55:50.234Z,12.12
2023-04-18T21:58:17.179Z,12.10
2023-04-18T22:01:02.725Z,12.08
2023-04-18T22:03:48.571Z,12.05
2023-04-18T22:06:15.912Z,12.04
2023-04-18T22:08:43.284Z,12.03
2023-04-18T22:11:29.046Z,11.99
2023-04-18T22:14:14.533Z,11.98
2023-04-18T22:17:00.290Z,12.00
2023-04-18T22:19:45.712Z,11.96
2023-04-18T22:22:12.763Z,11.93
2023-04-18T22:24:39.750Z,11.93
2023-04-18T22:27:06.582Z,11.92
2023-04-18T22:29:51.812Z,11.95
2023-04-18T22:32:18.738Z,11.93
2023-04-18T22:34:45.866Z,11.88
2023-04-18T22:37:12.653Z,11.84
2023-04-18T22:39:39.423Z,11.81
2023-04-18T22:42:06.283Z,11.86
2023-04-18T22:44:33.157Z,11.80
2023-04-18T22:47:00.121Z,11.74
2023-04-18T22:49:27.734Z,11.75
2023-04-18T22:51:54.653Z,11.74
2023-04-18T22:54:21.486Z,11.79
2023-04-18T22:56:50.529Z,11.79
2023-04-18T22:59:17.403Z,11.76
2023-04-18T23:01:44.435Z,11.72
2023-04-18T23:04:11.453Z,11.69
2023-04-18T23:06:38.915Z,11.65
2023-04-18T23:09:06.853Z,11.64
2023-04-18T23:11:33.630Z,11.59
2023-04-18T23:14:00.723Z,11.53
2023-04-18T23:16:28.264Z,11.54
2023-04-18T23:18:55.109Z,11.54
2023-04-18T23:21:22.066Z,11.50
2023-04-18T23:23:48.885Z,11.47
2023-04-18T23:26:15.898Z,11.49
2023-04-18T23:28:42.778Z,11.45
2023-04-18T23:31:09.640Z,11.33
2023-04-18T23:33:36.885Z,11.29
2023-04-18T23:36:03.865Z,11.26
2023-04-18T23:38:30.699Z,11.29
2023-04-18T23:40:59.553Z,11.25
2023-04-18T23:43:26.361Z,11.25
2023-04-18T23:45:53.318Z,11.25
2023-04-18T23:48:20.307Z,11.20
2023-04-18T23:50:47.876Z,11.14
2023-04-18T23:53:16.603Z,11.12
2023-04-18T23:55:43.707Z,11.11
2023-04-18T23:58:10.550Z,11.09
